createdAt,value
2017-10-28T00:00:36.699Z,0
2017-10-28T00:01:47.242Z,0
2017-10-28T00:02:57.221Z,0
2017-10-28T00:04:07.504Z,0
2017-10-28T00:05:17.477Z,0
2017-10-28T00:06:27.770Z,0
2017-10-28T00:07:38.366Z,0
2017-10-28T00:08:48.337Z,0
2017-10-28T00:09:58.636Z,0
2017-10-28T00:11:08.598Z,0
2017-10-28T00:12:18.565Z,0
2017-10-28T00:13:28.771Z,0
2017-10-28T00:14:38.725Z,0
2017-10-28T00:15:48.380Z,0
2017-10-28T00:16:58.691Z,0
2017-10-28T00:18:08.983Z,0
2017-10-28T00:19:19.528Z,0
2017-10-28T00:20:29.512Z,0
2017-10-28T00:21:39.804Z,0
2017-10-28T00:22:50.094Z,0
2017-10-28T00:24:00.394Z,0
2017-10-28T00:25:10.945Z,0
2017-10-28T00:26:20.936Z,0
2017-10-28T00:27:31.224Z,0
2017-10-28T00:28:41.519Z,0
2017-10-28T00:29:51.821Z,0
2017-10-28T00:31:02.043Z,0
2017-10-28T00:32:12.008Z,0
2017-10-28T00:33:22.300Z,0
2017-10-28T00:34:32.630Z,0
2017-10-28T00:35:42.597Z,0
2017-10-28T00:36:52.809Z,0
2017-10-28T00:38:03.090Z,0
2017-10-28T00:39:13.380Z,0
2017-10-28T00:40:23.699Z,0
2017-10-28T00:41:33.989Z,0
2017-10-28T00:42:44.522Z,0
2017-10-28T00:43:54.805Z,0
2017-10-28T00:45:05.100Z,0
2017-10-28T00:46:15.085Z,0
2017-10-28T00:47:25.411Z,0
2017-10-28T00:48:35.630Z,0
2017-10-28T00:49:45.944Z,0
2017-10-28T00:50:56.250Z,0
2017-10-28T00:52:06.539Z,0
2017-10-28T00:53:16.827Z,0
2017-10-28T00:54:27.048Z,0
2017-10-28T00:55:37.340Z,0
2017-10-28T00:56:47.624Z,0
2017-10-28T00:57:57.913Z,0
2017-10-28T00:59:08.221Z,0
2017-10-28T01:00:18.794Z,0
2017-10-28T01:01:29.083Z,0
2017-10-28T01:02:39.051Z,0
2017-10-28T01:03:49.381Z,0
2017-10-28T01:04:59.690Z,0
2017-10-28T01:06:10.240Z,0
2017-10-28T01:07:20.210Z,0
2017-10-28T01:08:30.494Z,0
2017-10-28T01:09:40.792Z,0
2017-10-28T01:10:51.014Z,0
2017-10-28T01:12:01.561Z,0
2017-10-28T01:13:11.855Z,0
2017-10-28T01:14:21.820Z,0
2017-10-28T01:15:31.785Z,0
2017-10-28T01:16:42.071Z,0
2017-10-28T01:17:52.630Z,0
2017-10-28T01:19:02.921Z,0
2017-10-28T01:20:13.215Z,0
2017-10-28T01:21:23.178Z,0
2017-10-28T01:22:33.478Z,0
2017-10-28T01:23:43.700Z,0
2017-10-28T01:24:54.004Z,0
2017-10-28T01:26:04.290Z,0
2017-10-28T01:27:14.257Z,0
2017-10-28T01:28:24.546Z,0
2017-10-28T01:29:34.762Z,0
2017-10-28T01:30:45.060Z,0
2017-10-28T01:31:55.350Z,0
2017-10-28T01:33:05.316Z,0
2017-10-28T01:34:15.601Z,0
2017-10-28T01:35:25.823Z,0
2017-10-28T01:36:36.124Z,0
2017-10-28T01:37:46.433Z,0
2017-10-28T01:38:56.729Z,0
2017-10-28T01:40:06.706Z,0
2017-10-28T01:41:17.253Z,0
2017-10-28T01:42:26.896Z,0
2017-10-28T01:43:37.184Z,0
2017-10-28T01:44:47.489Z,0
2017-10-28T01:45:57.773Z,0
2017-10-28T01:47:08.018Z,0
2017-10-28T01:48:17.986Z,0
2017-10-28T01:49:27.951Z,0
2017-10-28T01:50:37.917Z,0
2017-10-28T01:51:47.880Z,0
2017-10-28T01:52:58.096Z,0
2017-10-28T01:54:08.385Z,0
2017-10-28T01:55:18.669Z,0
2017-10-28T01:56:28.659Z,0
2017-10-28T01:57:38.947Z,0
2017-10-28T01:58:49.164Z,0
2017-10-28T01:59:59.450Z,0
2017-10-28T02:01:09.778Z,0
2017-10-28T02:02:20.078Z,0
2017-10-28T02:03:30.369Z,0
2017-10-28T02:04:40.918Z,0
2017-10-28T02:05:51.212Z,0
2017-10-28T02:07:01.186Z,0
2017-10-28T02:08:11.504Z,0
2017-10-28T02:09:21.148Z,0
2017-10-28T02:10:31.754Z,0
2017-10-28T02:11:42.046Z,0
2017-10-28T02:12:52.357Z,0
2017-10-28T02:14:02.656Z,0
2017-10-28T02:15:12.960Z,0
2017-10-28T02:16:22.846Z,0
2017-10-28T02:17:32.827Z,0
2017-10-28T02:18:43.116Z,0
2017-10-28T02:19:53.409Z,0
2017-10-28T02:21:03.728Z,0
2017-10-28T02:22:14.262Z,0
2017-10-28T02:23:24.557Z,0
2017-10-28T02:24:34.210Z,0
2017-10-28T02:25:44.511Z,0
2017-10-28T02:26:54.466Z,0
2017-10-28T02:28:05.024Z,0
2017-10-28T02:29:15.013Z,0
2017-10-28T02:30:25.344Z,0
2017-10-28T02:31:35.673Z,0
2017-10-28T02:32:45.954Z,0
2017-10-28T02:33:56.506Z,0
2017-10-28T02:35:06.803Z,0
2017-10-28T02:36:17.105Z,0
2017-10-28T02:37:27.089Z,0
2017-10-28T02:38:37.383Z,0
2017-10-28T02:39:47.597Z,0
2017-10-28T02:40:57.897Z,0
2017-10-28T02:42:08.201Z,0
2017-10-28T02:43:18.531Z,0
2017-10-28T02:44:28.828Z,0
2017-10-28T02:45:39.039Z,0
2017-10-28T02:46:49.047Z,0
2017-10-28T02:47:59.338Z,0
2017-10-28T02:49:09.301Z,0
2017-10-28T02:50:19.261Z,0
2017-10-28T02:51:29.840Z,0
2017-10-28T02:52:40.152Z,0
2017-10-28T02:53:50.462Z,0
2017-10-28T02:55:00.423Z,0
2017-10-28T02:56:10.734Z,0
2017-10-28T02:57:20.948Z,0
2017-10-28T02:58:31.254Z,0
2017-10-28T02:59:41.547Z,0
2017-10-28T03:00:51.523Z,0
2017-10-28T03:02:01.176Z,0
2017-10-28T03:03:11.717Z,0
2017-10-28T03:04:22.022Z,0
2017-10-28T03:05:32.312Z,0
2017-10-28T03:06:42.629Z,0
2017-10-28T03:07:52.592Z,0
2017-10-28T03:09:02.864Z,0
2017-10-28T03:10:12.831Z,0
2017-10-28T03:11:22.463Z,0
2017-10-28T03:12:32.112Z,0
2017-10-28T03:13:42.077Z,0
2017-10-28T03:14:52.607Z,0
2017-10-28T03:16:02.576Z,0
2017-10-28T03:17:12.874Z,0
2017-10-28T03:18:23.160Z,0
2017-10-28T03:19:33.450Z,0
2017-10-28T03:20:43.996Z,0
2017-10-28T03:21:54.288Z,0
2017-10-28T03:23:04.582Z,0
2017-10-28T03:24:14.876Z,0
2017-10-28T03:25:24.514Z,0
2017-10-28T03:26:35.044Z,0
2017-10-28T03:27:45.338Z,0
2017-10-28T03:28:55.302Z,0
2017-10-28T03:30:05.613Z,0
2017-10-28T03:31:15.928Z,0
2017-10-28T03:32:26.542Z,0
2017-10-28T03:33:36.528Z,0
2017-10-28T03:34:46.167Z,0
2017-10-28T03:35:56.468Z,0
2017-10-28T03:37:06.755Z,0
2017-10-28T03:38:17.294Z,0
2017-10-28T03:39:27.576Z,0
2017-10-28T03:40:37.526Z,0
2017-10-28T03:41:47.171Z,0
2017-10-28T03:42:57.130Z,0
2017-10-28T03:44:07.671Z,0
2017-10-28T03:45:17.639Z,0
2017-10-28T03:46:27.922Z,0
2017-10-28T03:47:38.220Z,0
2017-10-28T03:48:48.508Z,0
2017-10-28T03:49:58.722Z,0
2017-10-28T03:51:09.006Z,0
2017-10-28T03:52:19.328Z,0
2017-10-28T03:53:29.639Z,0
2017-10-28T03:54:39.606Z,0
2017-10-28T03:55:50.156Z,0
2017-10-28T03:57:00.120Z,0
2017-10-28T03:58:10.416Z,0
2017-10-28T03:59:20.375Z,0
2017-10-28T04:00:30.669Z,0
2017-10-28T04:01:41.205Z,0
2017-10-28T04:02:51.498Z,0
2017-10-28T04:04:01.801Z,0
2017-10-28T04:05:12.084Z,0
2017-10-28T04:06:22.077Z,0
2017-10-28T04:07:32.301Z,0
2017-10-28T04:08:42.612Z,0
2017-10-28T04:09:52.903Z,0
2017-10-28T04:11:03.212Z,0
2017-10-28T04:12:13.501Z,0
2017-10-28T04:13:24.045Z,0
2017-10-28T04:14:34.332Z,0
2017-10-28T04:15:44.636Z,0
2017-10-28T04:16:54.918Z,0
2017-10-28T04:18:05.212Z,0
2017-10-28T04:19:15.113Z,0
2017-10-28T04:20:25.398Z,0
2017-10-28T04:21:35.364Z,0
2017-10-28T04:22:45.343Z,0
2017-10-28T04:23:55.319Z,0
2017-10-28T04:25:05.884Z,0
2017-10-28T04:26:16.178Z,0
2017-10-28T04:27:26.153Z,0
2017-10-28T04:28:36.673Z,0
2017-10-28T04:29:46.970Z,0
2017-10-28T04:30:56.907Z,0
2017-10-28T04:32:06.877Z,0
2017-10-28T04:33:17.169Z,0
2017-10-28T04:34:27.141Z,0
2017-10-28T04:35:37.424Z,0
2017-10-28T04:36:47.706Z,0
2017-10-28T04:37:58.008Z,0
2017-10-28T04:39:07.992Z,0
2017-10-28T04:40:18.292Z,0
2017-10-28T04:41:28.594Z,0
2017-10-28T04:42:38.872Z,0
2017-10-28T04:43:48.831Z,0
2017-10-28T04:44:59.126Z,0
2017-10-28T04:46:09.103Z,0
2017-10-28T04:47:19.399Z,0
2017-10-28T04:48:29.937Z,0
2017-10-28T04:49:39.572Z,0
2017-10-28T04:50:49.861Z,0
2017-10-28T04:52:00.164Z,0
2017-10-28T04:53:10.456Z,0
2017-10-28T04:54:20.996Z,0
2017-10-28T04:55:30.953Z,0
2017-10-28T04:56:41.254Z,0
2017-10-28T04:57:51.550Z,0
2017-10-28T04:59:01.840Z,0
2017-10-28T05:00:12.053Z,0
2017-10-28T05:01:22.353Z,0
2017-10-28T05:02:32.649Z,0
2017-10-28T05:03:42.949Z,0
2017-10-28T05:04:53.268Z,0
2017-10-28T05:06:03.807Z,0
2017-10-28T05:07:13.785Z,0
2017-10-28T05:08:24.091Z,0
2017-10-28T05:09:34.383Z,0
2017-10-28T05:10:44.353Z,0
2017-10-28T05:11:54.887Z,0
2017-10-28T05:13:05.175Z,0
2017-10-28T05:14:15.521Z,0
2017-10-28T05:15:25.805Z,0
2017-10-28T05:16:36.099Z,0
2017-10-28T05:17:46.323Z,0
2017-10-28T05:18:56.285Z,0
2017-10-28T05:20:06.573Z,0
2017-10-28T05:21:16.880Z,0
2017-10-28T05:22:26.529Z,0
2017-10-28T05:23:37.075Z,0
2017-10-28T05:24:47.046Z,0
2017-10-28T05:25:57.357Z,0
2017-10-28T05:27:07.645Z,0
2017-10-28T05:28:17.629Z,0
2017-10-28T05:29:28.177Z,0
2017-10-28T05:30:38.464Z,0
2017-10-28T05:31:48.758Z,0
2017-10-28T05:32:58.736Z,0
2017-10-28T05:34:09.028Z,0
2017-10-28T05:35:19.568Z,0
2017-10-28T05:36:29.549Z,0
2017-10-28T05:37:39.523Z,0
2017-10-28T05:38:49.813Z,0
2017-10-28T05:40:00.100Z,0
2017-10-28T05:41:10.680Z,0
2017-10-28T05:42:20.974Z,0
2017-10-28T05:43:30.938Z,0
2017-10-28T05:44:40.603Z,0
2017-10-28T05:45:50.894Z,0
2017-10-28T05:47:01.429Z,0
2017-10-28T05:48:11.393Z,0
2017-10-28T05:49:21.359Z,0
2017-10-28T05:50:31.322Z,0
2017-10-28T05:51:41.600Z,0
2017-10-28T05:52:51.492Z,0
2017-10-28T05:54:01.781Z,5
2017-10-28T05:55:12.087Z,5
2017-10-28T05:56:22.067Z,5
2017-10-28T05:57:32.030Z,5
2017-10-28T05:58:42.246Z,5
2017-10-28T05:59:52.535Z,10
2017-10-28T06:01:02.852Z,10
2017-10-28T06:02:12.836Z,10
2017-10-28T06:03:22.831Z,10
2017-10-28T06:04:33.408Z,10
2017-10-28T06:05:43.712Z,15
2017-10-28T06:06:54.003Z,15
2017-10-28T06:08:04.302Z,15
2017-10-28T06:09:14.600Z,15
2017-10-28T06:10:24.549Z,15
2017-10-28T06:11:34.836Z,15
2017-10-28T06:12:44.820Z,15
2017-10-28T06:13:55.116Z,15
2017-10-28T06:15:05.093Z,20
2017-10-28T06:16:15.310Z,20
2017-10-28T06:17:25.284Z,25
2017-10-28T06:18:34.920Z,25
2017-10-28T06:19:44.564Z,25
2017-10-28T06:20:54.884Z,30
2017-10-28T06:22:05.427Z,30
2017-10-28T06:23:15.715Z,30
2017-10-28T06:24:26.013Z,30
2017-10-28T06:25:36.341Z,40
2017-10-28T06:26:46.323Z,45
2017-10-28T06:27:56.880Z,50
2017-10-28T06:29:06.852Z,50
2017-10-28T06:30:16.827Z,55
2017-10-28T06:31:27.162Z,50
2017-10-28T06:32:37.448Z,50
2017-10-28T06:33:47.989Z,60
2017-10-28T06:34:58.298Z,70
2017-10-28T06:36:08.634Z,65
2017-10-28T06:37:18.929Z,65
2017-10-28T06:38:29.224Z,70
2017-10-28T06:39:39.452Z,75
2017-10-28T06:40:49.751Z,75
2017-10-28T06:41:59.746Z,75
2017-10-28T06:43:09.710Z,75
2017-10-28T06:44:20.057Z,60
2017-10-28T06:45:30.630Z,65
2017-10-28T06:46:40.935Z,70
2017-10-28T06:47:51.223Z,85
2017-10-28T06:49:01.191Z,85
2017-10-28T06:50:11.164Z,90
2017-10-28T06:51:21.699Z,75
2017-10-28T06:52:31.993Z,85
2017-10-28T06:53:41.628Z,95
2017-10-28T06:54:51.919Z,105
2017-10-28T06:56:01.874Z,130
2017-10-28T06:57:12.432Z,130
2017-10-28T06:58:22.720Z,130
2017-10-28T06:59:33.022Z,120
2017-10-28T07:00:43.310Z,125
2017-10-28T07:01:53.620Z,95
2017-10-28T07:03:04.237Z,85
2017-10-28T07:04:14.534Z,65
2017-10-28T07:05:24.541Z,65
2017-10-28T07:06:34.831Z,70
2017-10-28T07:07:45.127Z,80
2017-10-28T07:08:55.681Z,100
2017-10-28T07:10:05.992Z,95
2017-10-28T07:11:15.627Z,85
2017-10-28T07:12:25.595Z,80
2017-10-28T07:13:35.564Z,75
2017-10-28T07:14:46.117Z,60
2017-10-28T07:15:56.102Z,65
2017-10-28T07:17:06.406Z,65
2017-10-28T07:18:16.377Z,80
2017-10-28T07:19:26.348Z,85
2017-10-28T07:20:36.918Z,75
2017-10-28T07:21:47.215Z,75
2017-10-28T07:22:57.508Z,70
2017-10-28T07:24:07.796Z,80
2017-10-28T07:25:18.081Z,75
2017-10-28T07:26:28.285Z,60
2017-10-28T07:27:38.578Z,75
2017-10-28T07:28:48.555Z,100
2017-10-28T07:29:58.884Z,95
2017-10-28T07:31:09.187Z,80
2017-10-28T07:32:19.730Z,90
2017-10-28T07:33:29.710Z,120
2017-10-28T07:34:40.013Z,100
2017-10-28T07:35:50.326Z,105
2017-10-28T07:37:00.625Z,90
2017-10-28T07:38:11.177Z,110
2017-10-28T07:39:20.822Z,135
2017-10-28T07:40:31.128Z,130
2017-10-28T07:41:41.414Z,140
2017-10-28T07:42:51.379Z,150
2017-10-28T07:44:01.968Z,185
2017-10-28T07:45:12.262Z,200
2017-10-28T07:46:22.561Z,190
2017-10-28T07:47:32.540Z,145
2017-10-28T07:48:42.848Z,130
2017-10-28T07:49:53.120Z,145
2017-10-28T07:51:03.437Z,180
2017-10-28T07:52:13.397Z,215
2017-10-28T07:53:23.683Z,215
2017-10-28T07:54:33.986Z,210
2017-10-28T07:55:44.582Z,210
2017-10-28T07:56:54.872Z,205
2017-10-28T07:58:04.835Z,155
2017-10-28T07:59:15.156Z,95
2017-10-28T08:00:24.499Z,110
2017-10-28T08:01:35.055Z,150
2017-10-28T08:02:45.382Z,155
2017-10-28T08:03:55.680Z,155
2017-10-28T08:05:05.972Z,180
2017-10-28T08:06:16.261Z,175
2017-10-28T08:07:26.805Z,140
2017-10-28T08:08:36.773Z,115
2017-10-28T08:09:47.067Z,140
2017-10-28T08:10:57.032Z,190
2017-10-28T08:12:07.343Z,180
2017-10-28T08:13:17.302Z,160
2017-10-28T08:14:26.955Z,140
2017-10-28T08:15:37.253Z,140
2017-10-28T08:16:47.556Z,100
2017-10-28T08:17:57.841Z,95
2017-10-28T08:19:08.395Z,75
2017-10-28T08:20:18.678Z,80
2017-10-28T08:21:28.643Z,90
2017-10-28T08:22:38.611Z,100
2017-10-28T08:23:48.904Z,95
2017-10-28T08:24:59.116Z,85
2017-10-28T08:26:08.791Z,75
2017-10-28T08:27:19.111Z,70
2017-10-28T08:28:29.410Z,65
2017-10-28T08:29:39.713Z,80
2017-10-28T08:30:50.253Z,80
2017-10-28T08:32:00.218Z,55
2017-10-28T08:33:10.190Z,50
2017-10-28T08:34:20.496Z,55
2017-10-28T08:35:30.788Z,70
2017-10-28T08:36:41.344Z,115
2017-10-28T08:37:51.325Z,110
2017-10-28T08:39:01.621Z,140
2017-10-28T08:40:11.945Z,170
2017-10-28T08:41:22.229Z,180
2017-10-28T08:42:32.774Z,170
2017-10-28T08:43:42.751Z,190
2017-10-28T08:44:53.042Z,175
2017-10-28T08:46:03.021Z,150
2017-10-28T08:47:13.004Z,170
2017-10-28T08:48:22.890Z,140
2017-10-28T08:49:33.195Z,130
2017-10-28T08:50:43.165Z,135
2017-10-28T08:51:53.139Z,165
2017-10-28T08:53:03.123Z,190
2017-10-28T08:54:13.355Z,220
2017-10-28T08:55:23.333Z,170
2017-10-28T08:56:33.622Z,160
2017-10-28T08:57:43.936Z,200
2017-10-28T08:58:54.228Z,170
2017-10-28T09:00:04.771Z,145
2017-10-28T09:01:15.087Z,165
2017-10-28T09:02:25.411Z,160
2017-10-28T09:03:35.717Z,175
2017-10-28T09:04:45.702Z,205
2017-10-28T09:05:55.975Z,205
2017-10-28T09:07:06.278Z,210
2017-10-28T09:08:16.244Z,185
2017-10-28T09:09:26.598Z,165
2017-10-28T09:10:36.910Z,115
2017-10-28T09:11:47.464Z,185
2017-10-28T09:12:57.758Z,195
2017-10-28T09:14:07.730Z,145
2017-10-28T09:15:18.023Z,130
2017-10-28T09:16:27.989Z,135
2017-10-28T09:17:37.886Z,155
2017-10-28T09:18:47.860Z,175
2017-10-28T09:19:58.165Z,175
2017-10-28T09:21:08.455Z,150
2017-10-28T09:22:18.761Z,135
2017-10-28T09:23:28.988Z,135
2017-10-28T09:24:38.954Z,160
2017-10-28T09:25:48.916Z,150
2017-10-28T09:26:59.225Z,175
2017-10-28T09:28:09.529Z,250
2017-10-28T09:29:20.131Z,185
2017-10-28T09:30:30.463Z,170
2017-10-28T09:31:40.409Z,185
2017-10-28T09:32:50.699Z,250
2017-10-28T09:34:00.670Z,210
2017-10-28T09:35:10.878Z,190
2017-10-28T09:36:20.844Z,210
2017-10-28T09:37:31.142Z,205
2017-10-28T09:38:41.444Z,175
2017-10-28T09:39:51.757Z,200
2017-10-28T09:41:01.978Z,215
2017-10-28T09:42:12.279Z,215
2017-10-28T09:43:22.592Z,205
2017-10-28T09:44:32.885Z,205
2017-10-28T09:45:43.175Z,190
2017-10-28T09:46:53.398Z,170
2017-10-28T09:48:03.692Z,190
2017-10-28T09:49:13.981Z,200
2017-10-28T09:50:23.981Z,190
2017-10-28T09:51:33.981Z,250
2017-10-28T09:52:44.534Z,280
2017-10-28T09:53:54.837Z,230
2017-10-28T09:55:05.159Z,260
2017-10-28T09:56:15.504Z,220
2017-10-28T09:57:25.813Z,200
2017-10-28T09:58:36.032Z,225
2017-10-28T09:59:46.334Z,220
2017-10-28T10:00:56.631Z,205
2017-10-28T10:02:06.973Z,200
2017-10-28T10:03:16.628Z,215
2017-10-28T10:04:27.201Z,220
2017-10-28T10:05:37.183Z,200
2017-10-28T10:06:47.475Z,170
2017-10-28T10:07:57.765Z,160
2017-10-28T10:09:08.074Z,120
2017-10-28T10:10:18.631Z,105
2017-10-28T10:11:28.612Z,95
2017-10-28T10:12:38.593Z,85
2017-10-28T10:13:48.568Z,80
2017-10-28T10:14:58.539Z,90
2017-10-28T10:16:09.107Z,85
2017-10-28T10:17:19.402Z,95
2017-10-28T10:18:29.731Z,95
2017-10-28T10:19:40.028Z,85
2017-10-28T10:20:50.320Z,85
2017-10-28T10:22:00.940Z,75
2017-10-28T10:23:10.920Z,75
2017-10-28T10:24:21.239Z,75
2017-10-28T10:25:31.224Z,105
2017-10-28T10:26:41.204Z,125
2017-10-28T10:27:51.759Z,135
2017-10-28T10:29:02.045Z,130
2017-10-28T10:30:12.380Z,135
2017-10-28T10:31:22.713Z,130
2017-10-28T10:32:33.019Z,110
2017-10-28T10:33:43.227Z,105
2017-10-28T10:34:53.538Z,110
2017-10-28T10:36:03.849Z,110
2017-10-28T10:37:14.145Z,105
2017-10-28T10:38:24.445Z,110
2017-10-28T10:39:34.980Z,105
2017-10-28T10:40:44.958Z,105
2017-10-28T10:41:55.274Z,115
2017-10-28T10:43:05.589Z,130
2017-10-28T10:44:15.903Z,150
2017-10-28T10:45:26.469Z,190
2017-10-28T10:46:36.789Z,200
2017-10-28T10:47:46.779Z,270
2017-10-28T10:48:57.087Z,215
2017-10-28T10:50:07.074Z,165
2017-10-28T10:51:17.707Z,225
2017-10-28T10:52:28.013Z,235
2017-10-28T10:53:37.977Z,235
2017-10-28T10:54:48.286Z,220
2017-10-28T10:55:58.253Z,240
2017-10-28T10:57:08.841Z,210
2017-10-28T10:58:19.139Z,225
2017-10-28T10:59:29.438Z,200
2017-10-28T11:00:39.745Z,215
2017-10-28T11:01:50.057Z,230
2017-10-28T11:03:00.287Z,250
2017-10-28T11:04:10.598Z,215
2017-10-28T11:05:20.580Z,205
2017-10-28T11:06:30.558Z,255
2017-10-28T11:07:40.851Z,300
2017-10-28T11:08:51.416Z,235
2017-10-28T11:10:01.727Z,210
2017-10-28T11:11:11.712Z,190
2017-10-28T11:12:21.678Z,195
2017-10-28T11:13:31.965Z,230
2017-10-28T11:14:42.520Z,240
2017-10-28T11:15:52.826Z,165
2017-10-28T11:17:03.142Z,135
2017-10-28T11:18:13.121Z,120
2017-10-28T11:19:23.439Z,115
2017-10-28T11:20:33.978Z,120
2017-10-28T11:21:43.628Z,140
2017-10-28T11:22:53.934Z,130
2017-10-28T11:24:04.250Z,125
2017-10-28T11:25:14.538Z,115
2017-10-28T11:26:25.088Z,155
2017-10-28T11:27:35.378Z,125
2017-10-28T11:28:45.689Z,105
2017-10-28T11:29:55.335Z,105
2017-10-28T11:31:05.320Z,90
2017-10-28T11:32:15.958Z,90
2017-10-28T11:33:26.276Z,90
2017-10-28T11:34:36.585Z,100
2017-10-28T11:35:46.246Z,135
2017-10-28T11:36:56.551Z,115
2017-10-28T11:38:06.765Z,100
2017-10-28T11:39:17.082Z,85
2017-10-28T11:40:27.072Z,95
2017-10-28T11:41:37.372Z,120
2017-10-28T11:42:47.345Z,90
2017-10-28T11:43:57.935Z,100
2017-10-28T11:45:08.252Z,115
2017-10-28T11:46:18.541Z,125
2017-10-28T11:47:28.855Z,195
2017-10-28T11:48:39.153Z,190
2017-10-28T11:49:48.732Z,175
2017-10-28T11:50:59.035Z,155
2017-10-28T11:52:09.339Z,150
2017-10-28T11:53:19.334Z,155
2017-10-28T11:54:29.633Z,150
2017-10-28T11:55:40.211Z,170
2017-10-28T11:56:50.183Z,150
2017-10-28T11:58:00.488Z,145
2017-10-28T11:59:10.804Z,150
2017-10-28T12:00:20.792Z,160
2017-10-28T12:01:31.350Z,160
2017-10-28T12:02:41.657Z,175
2017-10-28T12:03:51.968Z,140
2017-10-28T12:05:02.257Z,175
2017-10-28T12:06:12.549Z,210
2017-10-28T12:07:22.811Z,150
2017-10-28T12:08:33.103Z,140
2017-10-28T12:09:43.096Z,155
2017-10-28T12:10:53.387Z,130
2017-10-28T12:12:03.768Z,125
2017-10-28T12:13:13.989Z,125
2017-10-28T12:14:24.291Z,140
2017-10-28T12:15:34.605Z,130
2017-10-28T12:16:44.918Z,175
2017-10-28T12:17:55.216Z,140
2017-10-28T12:19:05.769Z,110
2017-10-28T12:20:16.063Z,120
2017-10-28T12:21:26.367Z,160
2017-10-28T12:22:36.659Z,170
2017-10-28T12:23:46.630Z,165
2017-10-28T12:24:56.867Z,140
2017-10-28T12:26:07.185Z,155
2017-10-28T12:27:17.166Z,170
2017-10-28T12:28:27.479Z,210
2017-10-28T12:29:37.773Z,205
2017-10-28T12:30:48.334Z,230
2017-10-28T12:31:58.631Z,225
2017-10-28T12:33:08.976Z,280
2017-10-28T12:34:19.285Z,275
2017-10-28T12:35:29.585Z,285
2017-10-28T12:36:39.855Z,275
2017-10-28T12:37:50.170Z,295
2017-10-28T12:39:00.470Z,220
2017-10-28T12:40:10.777Z,210
2017-10-28T12:41:21.106Z,210
2017-10-28T12:42:31.716Z,190
2017-10-28T12:43:42.033Z,200
2017-10-28T12:44:51.668Z,200
2017-10-28T12:46:01.308Z,210
2017-10-28T12:47:11.278Z,250
2017-10-28T12:48:21.519Z,225
2017-10-28T12:49:31.835Z,170
2017-10-28T12:50:41.817Z,140
2017-10-28T12:51:51.783Z,140
2017-10-28T12:53:02.080Z,145
2017-10-28T12:54:12.305Z,165
2017-10-28T12:55:22.276Z,170
2017-10-28T12:56:32.590Z,145
2017-10-28T12:57:42.894Z,130
2017-10-28T12:58:53.181Z,155
2017-10-28T13:00:03.757Z,140
2017-10-28T13:01:13.386Z,100
2017-10-28T13:02:23.375Z,80
2017-10-28T13:03:33.666Z,85
2017-10-28T13:04:43.965Z,80
2017-10-28T13:05:54.521Z,90
2017-10-28T13:07:04.830Z,75
2017-10-28T13:08:14.810Z,90
2017-10-28T13:09:24.468Z,120
2017-10-28T13:10:34.775Z,120
2017-10-28T13:11:45.354Z,140
2017-10-28T13:12:55.329Z,160
2017-10-28T13:14:05.616Z,140
2017-10-28T13:15:15.587Z,105
2017-10-28T13:16:25.553Z,105
2017-10-28T13:17:36.107Z,110
2017-10-28T13:18:46.425Z,115
2017-10-28T13:19:56.392Z,125
2017-10-28T13:21:06.688Z,115
2017-10-28T13:22:16.334Z,90
2017-10-28T13:23:26.896Z,80
2017-10-28T13:24:37.193Z,70
2017-10-28T13:25:47.166Z,70
2017-10-28T13:26:57.478Z,75
2017-10-28T13:28:07.455Z,80
2017-10-28T13:29:18.001Z,65
2017-10-28T13:30:27.976Z,70
2017-10-28T13:31:37.941Z,60
2017-10-28T13:32:48.252Z,70
2017-10-28T13:33:58.563Z,60
2017-10-28T13:35:08.801Z,65
2017-10-28T13:36:19.096Z,65
2017-10-28T13:37:29.433Z,65
2017-10-28T13:38:39.731Z,65
2017-10-28T13:39:50.044Z,60
2017-10-28T13:41:00.268Z,65
2017-10-28T13:42:10.239Z,60
2017-10-28T13:43:19.880Z,50
2017-10-28T13:44:29.531Z,60
2017-10-28T13:45:39.502Z,60
2017-10-28T13:46:50.052Z,55
2017-10-28T13:48:00.031Z,55
2017-10-28T13:49:10.023Z,55
2017-10-28T13:50:20.017Z,50
2017-10-28T13:51:29.994Z,45
2017-10-28T13:52:40.214Z,40
2017-10-28T13:53:50.512Z,40
2017-10-28T13:55:00.488Z,40
2017-10-28T13:56:10.805Z,40
2017-10-28T13:57:21.101Z,45
2017-10-28T13:58:31.318Z,45
2017-10-28T13:59:41.639Z,45
2017-10-28T14:00:51.601Z,45
2017-10-28T14:02:01.931Z,50
2017-10-28T14:03:12.221Z,45
2017-10-28T14:04:22.777Z,55
2017-10-28T14:05:32.757Z,60
2017-10-28T14:06:43.060Z,60
2017-10-28T14:07:53.376Z,55
2017-10-28T14:09:03.360Z,50
2017-10-28T14:10:13.908Z,50
2017-10-28T14:11:24.231Z,50
2017-10-28T14:12:34.204Z,50
2017-10-28T14:13:44.503Z,55
2017-10-28T14:14:54.467Z,55
2017-10-28T14:16:04.358Z,55
2017-10-28T14:17:14.334Z,55
2017-10-28T14:18:24.292Z,50
2017-10-28T14:19:34.279Z,50
2017-10-28T14:20:44.592Z,50
2017-10-28T14:21:54.488Z,40
2017-10-28T14:23:04.809Z,40
2017-10-28T14:24:15.134Z,45
2017-10-28T14:25:25.106Z,40
2017-10-28T14:26:35.424Z,35
2017-10-28T14:27:45.654Z,35
2017-10-28T14:28:55.633Z,30
2017-10-28T14:30:05.932Z,30
2017-10-28T14:31:16.240Z,45
2017-10-28T14:32:26.553Z,55
2017-10-28T14:33:36.503Z,50
2017-10-28T14:34:46.801Z,50
2017-10-28T14:35:56.447Z,50
2017-10-28T14:37:06.433Z,50
2017-10-28T14:38:16.407Z,45
2017-10-28T14:39:26.974Z,50
2017-10-28T14:40:36.947Z,50
2017-10-28T14:41:47.252Z,50
2017-10-28T14:42:57.224Z,40
2017-10-28T14:44:07.202Z,35
2017-10-28T14:45:17.431Z,35
2017-10-28T14:46:27.090Z,40
2017-10-28T14:47:37.410Z,40
2017-10-28T14:48:47.714Z,35
2017-10-28T14:49:57.359Z,30
2017-10-28T14:51:07.931Z,25
2017-10-28T14:52:18.230Z,30
2017-10-28T14:53:28.206Z,30
2017-10-28T14:54:38.192Z,25
2017-10-28T14:55:48.489Z,20
2017-10-28T14:56:58.728Z,20
2017-10-28T14:58:09.038Z,25
2017-10-28T14:59:19.346Z,25
2017-10-28T15:00:29.673Z,25
2017-10-28T15:01:39.980Z,25
2017-10-28T15:02:50.577Z,25
2017-10-28T15:04:00.902Z,25
2017-10-28T15:05:10.888Z,20
2017-10-28T15:06:20.849Z,20
2017-10-28T15:07:30.834Z,20
2017-10-28T15:08:41.454Z,20
2017-10-28T15:09:51.774Z,20
2017-10-28T15:11:02.078Z,25
2017-10-28T15:12:12.069Z,20
2017-10-28T15:13:22.047Z,20
2017-10-28T15:14:32.657Z,20
2017-10-28T15:15:42.598Z,25
2017-10-28T15:16:52.895Z,30
2017-10-28T15:18:03.188Z,25
2017-10-28T15:19:13.508Z,20
2017-10-28T15:20:24.059Z,15
2017-10-28T15:21:34.420Z,15
2017-10-28T15:22:44.416Z,15
2017-10-28T15:23:54.709Z,20
2017-10-28T15:25:04.359Z,15
2017-10-28T15:26:14.582Z,15
2017-10-28T15:27:24.602Z,15
2017-10-28T15:28:34.917Z,15
2017-10-28T15:29:44.906Z,15
2017-10-28T15:30:55.232Z,10
2017-10-28T15:32:05.784Z,5
2017-10-28T15:33:16.107Z,10
2017-10-28T15:34:26.423Z,10
2017-10-28T15:35:36.726Z,10
2017-10-28T15:36:47.031Z,10
2017-10-28T15:37:57.615Z,10
2017-10-28T15:39:07.588Z,10
2017-10-28T15:40:17.923Z,10
2017-10-28T15:41:28.243Z,5
2017-10-28T15:42:38.540Z,5
2017-10-28T15:43:49.107Z,5
2017-10-28T15:44:59.423Z,5
2017-10-28T15:46:09.736Z,5
2017-10-28T15:47:20.050Z,0
2017-10-28T15:48:29.375Z,0
2017-10-28T15:49:39.941Z,0
2017-10-28T15:50:50.235Z,0
2017-10-28T15:52:00.224Z,0
2017-10-28T15:53:10.217Z,0
2017-10-28T15:54:20.537Z,0
2017-10-28T15:55:31.098Z,0
2017-10-28T15:56:41.061Z,0
2017-10-28T15:57:51.039Z,0
2017-10-28T15:59:01.018Z,0
2017-10-28T16:00:11.322Z,0
2017-10-28T16:01:21.872Z,0
2017-10-28T16:02:31.543Z,0
2017-10-28T16:03:41.519Z,0
2017-10-28T16:04:51.826Z,0
2017-10-28T16:06:01.815Z,0
2017-10-28T16:07:12.415Z,0
2017-10-28T16:08:22.724Z,0
2017-10-28T16:09:32.698Z,0
2017-10-28T16:10:42.673Z,0
2017-10-28T16:11:53.009Z,0
2017-10-28T16:13:02.907Z,0
2017-10-28T16:14:12.895Z,0
2017-10-28T16:15:22.858Z,0
2017-10-28T16:16:32.826Z,0
2017-10-28T16:17:43.140Z,0
2017-10-28T16:18:53.695Z,0
2017-10-28T16:20:03.671Z,0
2017-10-28T16:21:13.971Z,0
2017-10-28T16:22:23.956Z,0
2017-10-28T16:23:34.257Z,0
2017-10-28T16:24:44.475Z,0
2017-10-28T16:25:54.474Z,0
2017-10-28T16:27:04.809Z,0
2017-10-28T16:28:15.114Z,0
2017-10-28T16:29:25.098Z,0
2017-10-28T16:30:35.321Z,0
2017-10-28T16:31:45.619Z,0
2017-10-28T16:32:55.591Z,0
2017-10-28T16:34:05.263Z,0
2017-10-28T16:35:15.572Z,0
2017-10-28T16:36:25.460Z,0
2017-10-28T16:37:35.433Z,0
2017-10-28T16:38:45.719Z,0
2017-10-28T16:39:56.042Z,0
2017-10-28T16:41:06.374Z,0
2017-10-28T16:42:16.942Z,0
2017-10-28T16:43:26.605Z,0
2017-10-28T16:44:36.907Z,0
2017-10-28T16:45:47.214Z,0